createdAt,value
2018-12-10T00:00:30.338Z,9.10
2018-12-10T00:01:29.997Z,8.80
2018-12-10T00:02:30.344Z,8.90
2018-12-10T00:03:30.335Z,10.30
2018-12-10T00:04:30.322Z,8.90
2018-12-10T00:05:30.288Z,9.70
2018-12-10T00:06:30.289Z,11.70
2018-12-10T00:07:30.270Z,9.50
2018-12-10T00:08:29.944Z,12.20
2018-12-10T00:09:29.904Z,10.60
2018-12-10T00:10:30.233Z,9.00
2018-12-10T00:11:30.244Z,10.50
2018-12-10T00:12:29.881Z,9.30
2018-12-10T00:13:29.913Z,11.10
2018-12-10T00:14:30.211Z,9.30
2018-12-10T00:15:30.260Z,10.50
2018-12-10T00:16:29.857Z,9.60
2018-12-10T00:17:30.184Z,11.10
2018-12-10T00:18:29.832Z,9.50
2018-12-10T00:20:30.221Z,10.40
2018-12-10T00:23:02.041Z,8.80
2018-12-10T00:24:01.855Z,9.10
2018-12-10T00:25:55.857Z,14.00
2018-12-10T00:26:55.208Z,10.60
2018-12-10T00:28:49.175Z,10.00
2018-12-10T00:29:48.894Z,8.80
2018-12-10T00:31:41.900Z,8.70
2018-12-10T00:32:41.913Z,8.80
2018-12-10T00:34:35.526Z,10.50
2018-12-10T00:35:35.601Z,10.10
2018-12-10T00:37:29.071Z,8.90
2018-12-10T00:38:28.965Z,9.40
2018-12-10T00:40:22.207Z,10.20
2018-12-10T00:41:22.273Z,10.20
2018-12-10T00:43:15.653Z,9.70
2018-12-10T00:44:15.274Z,10.00
2018-12-10T00:46:09.236Z,11.20
2018-12-10T00:47:08.978Z,10.00
2018-12-10T00:49:02.001Z,10.30
2018-12-10T00:50:01.967Z,12.40
2018-12-10T00:51:55.901Z,9.80
2018-12-10T00:52:55.345Z,10.50
2018-12-10T00:54:49.039Z,10.30
2018-12-10T00:55:48.682Z,11.30
2018-12-10T00:57:42.247Z,10.50
2018-12-10T00:58:42.369Z,9.60
2018-12-10T01:00:35.474Z,9.20
2018-12-10T01:01:35.674Z,9.70
2018-12-10T01:03:29.217Z,14.40
2018-12-10T01:04:28.680Z,12.50
2018-12-10T01:06:22.152Z,14.30
2018-12-10T01:07:22.040Z,13.90
2018-12-10T01:09:15.845Z,15.80
2018-12-10T01:10:15.354Z,16.70
2018-12-10T01:12:09.338Z,15.70
2018-12-10T01:13:09.074Z,14.60
2018-12-10T01:15:02.875Z,15.90
2018-12-10T01:16:02.081Z,17.30
2018-12-10T01:17:56.353Z,16.50
2018-12-10T01:18:55.430Z,20.80
2018-12-10T01:20:48.985Z,15.00
2018-12-10T01:21:49.086Z,16.20
2018-12-10T01:23:42.124Z,17.30
2018-12-10T01:24:42.431Z,19.30
2018-12-10T01:26:36.381Z,21.50
2018-12-10T01:27:35.935Z,21.80
2018-12-10T01:29:29.333Z,24.10
2018-12-10T01:30:29.290Z,34.60
2018-12-10T01:32:23.303Z,51.10
2018-12-10T01:33:23.109Z,51.70
2018-12-10T01:35:16.911Z,42.80
2018-12-10T01:36:16.443Z,47.30
2018-12-10T01:38:10.007Z,46.90
2018-12-10T01:39:10.160Z,45.80
2018-12-10T01:41:13.064Z,42.20
2018-12-10T01:42:04.417Z,39.00
2018-12-10T01:43:04.590Z,41.60
2018-12-10T01:44:08.221Z,48.20
2018-12-10T01:47:31.530Z,48.20
2018-12-10T01:48:31.835Z,44.90
2018-12-10T01:50:28.787Z,48.90
2018-12-10T01:51:27.144Z,45.10
2018-12-10T01:52:25.637Z,45.60
2018-12-10T01:53:27.227Z,42.70
2018-12-10T01:54:25.011Z,52.10
2018-12-10T01:55:25.003Z,49.40
2018-12-10T01:57:57.365Z,49.60
2018-12-10T01:58:57.151Z,50.00
2018-12-10T02:00:50.845Z,53.70
2018-12-10T02:01:50.802Z,51.60
2018-12-10T02:03:44.425Z,52.70
2018-12-10T02:04:44.153Z,55.90
2018-12-10T02:07:37.141Z,55.00
2018-12-10T02:09:30.810Z,51.70
2018-12-10T02:10:30.604Z,64.20
2018-12-10T02:12:24.058Z,62.70
2018-12-10T02:13:23.953Z,60.60
2018-12-10T02:15:18.401Z,59.50
2018-12-10T02:16:17.685Z,55.40
2018-12-10T02:18:10.998Z,65.60
2018-12-10T02:19:11.018Z,65.10
2018-12-10T02:21:04.189Z,62.70
2018-12-10T02:22:04.319Z,54.90
2018-12-10T02:23:57.704Z,89.20
2018-12-10T02:24:57.697Z,95.30
2018-12-10T02:26:51.827Z,75.50
2018-12-10T02:27:51.037Z,70.80
2018-12-10T02:29:44.425Z,75.10
2018-12-10T02:30:44.425Z,70.10
2018-12-10T02:32:37.776Z,70.80
2018-12-10T02:33:37.413Z,74.00
2018-12-10T02:35:31.157Z,74.20
2018-12-10T02:36:31.112Z,77.60
2018-12-10T02:38:24.688Z,74.80
2018-12-10T02:39:24.135Z,72.70
2018-12-10T02:41:18.418Z,73.70
2018-12-10T02:42:17.791Z,72.70
2018-12-10T02:44:11.057Z,67.60
2018-12-10T02:45:10.787Z,72.10
2018-12-10T02:47:04.435Z,66.60
2018-12-10T02:48:04.455Z,66.00
2018-12-10T02:49:57.978Z,69.80
2018-12-10T02:50:57.786Z,71.10
2018-12-10T02:52:52.155Z,72.60
2018-12-10T02:53:51.497Z,73.10
2018-12-10T02:55:44.701Z,66.50
2018-12-10T02:56:44.874Z,68.60
2018-12-10T02:58:38.202Z,66.00
2018-12-10T02:59:38.238Z,70.30
2018-12-10T03:01:31.436Z,62.40
2018-12-10T03:02:31.575Z,62.10
2018-12-10T03:04:24.931Z,62.80
2018-12-10T03:05:24.872Z,65.30
2018-12-10T03:07:18.550Z,64.10
2018-12-10T03:08:18.234Z,64.30
2018-12-10T03:10:11.345Z,60.90
2018-12-10T03:11:11.554Z,59.60
2018-12-10T03:13:04.758Z,56.30
2018-12-10T03:14:04.419Z,56.60
2018-12-10T03:15:58.061Z,56.60
2018-12-10T03:16:57.782Z,58.30
2018-12-10T03:18:51.360Z,51.70
2018-12-10T03:19:51.183Z,50.80
2018-12-10T03:21:44.567Z,52.90
2018-12-10T03:22:44.584Z,51.10
2018-12-10T03:26:09.834Z,51.30
2018-12-10T03:27:09.628Z,51.10
2018-12-10T03:29:03.830Z,52.00
2018-12-10T03:30:03.797Z,54.30
2018-12-10T03:31:57.818Z,51.80
2018-12-10T03:32:57.181Z,50.30
2018-12-10T03:34:50.888Z,51.30
2018-12-10T03:35:50.930Z,47.70
2018-12-10T03:37:44.405Z,45.20
2018-12-10T03:38:43.830Z,46.60
2018-12-10T03:41:37.549Z,47.10
2018-12-10T03:43:31.255Z,49.30
2018-12-10T03:44:31.070Z,50.00
2018-12-10T03:46:24.493Z,47.70
2018-12-10T03:47:24.046Z,55.00
2018-12-10T03:49:17.908Z,49.00
2018-12-10T03:50:17.751Z,48.60
2018-12-10T03:52:11.333Z,61.40
2018-12-10T03:53:10.758Z,56.70
2018-12-10T03:55:04.633Z,60.00
2018-12-10T03:56:04.478Z,54.10
2018-12-10T03:58:18.877Z,57.40
2018-12-10T03:58:57.439Z,56.90
2018-12-10T04:00:51.603Z,52.80
2018-12-10T04:01:51.100Z,51.70
2018-12-10T04:05:16.779Z,71.70
2018-12-10T04:06:16.497Z,66.40
2018-12-10T04:08:12.664Z,66.80
2018-12-10T04:09:09.853Z,58.00
2018-12-10T04:11:03.458Z,56.60
2018-12-10T04:12:02.888Z,54.80
2018-12-10T04:13:56.799Z,53.70
2018-12-10T04:14:56.603Z,50.90
2018-12-10T04:16:49.945Z,51.50
2018-12-10T04:17:49.604Z,52.10
2018-12-10T04:19:43.283Z,46.20
2018-12-10T04:20:42.910Z,46.50
2018-12-10T04:22:36.772Z,51.50
2018-12-10T04:23:36.659Z,49.40
2018-12-10T04:25:30.169Z,45.70
2018-12-10T04:26:29.633Z,46.10
2018-12-10T04:27:29.984Z,46.30
2018-12-10T04:28:29.583Z,47.10
2018-12-10T04:29:29.973Z,42.80
2018-12-10T04:30:29.577Z,42.40
2018-12-10T04:31:29.953Z,42.60
2018-12-10T04:32:29.913Z,42.10
2018-12-10T04:33:29.586Z,40.50
2018-12-10T04:34:29.919Z,41.10
2018-12-10T04:35:29.569Z,40.80
2018-12-10T04:36:29.533Z,40.20
2018-12-10T04:37:29.578Z,41.50
2018-12-10T04:38:29.552Z,40.80
2018-12-10T04:39:29.524Z,40.50
2018-12-10T04:40:29.892Z,43.10
2018-12-10T04:41:29.501Z,40.50
2018-12-10T04:42:29.825Z,39.30
2018-12-10T04:43:29.872Z,41.60
2018-12-10T04:44:29.865Z,37.10
2018-12-10T04:45:29.836Z,38.10
2018-12-10T04:46:29.847Z,39.50
2018-12-10T04:47:29.502Z,36.50
2018-12-10T04:48:29.452Z,37.90
2018-12-10T04:49:29.811Z,39.30
2018-12-10T04:50:29.799Z,37.20
2018-12-10T04:51:29.792Z,37.20
2018-12-10T04:52:29.795Z,35.40
2018-12-10T04:53:29.749Z,33.70
2018-12-10T04:54:29.747Z,33.00
2018-12-10T04:55:30.198Z,32.50
2018-12-10T04:56:29.698Z,31.90
2018-12-10T04:57:29.416Z,33.00
2018-12-10T04:58:29.766Z,35.40
2018-12-10T04:59:29.707Z,31.60
2018-12-10T05:00:29.376Z,34.90
2018-12-10T05:01:29.698Z,32.80
2018-12-10T05:02:29.691Z,35.40
2018-12-10T05:03:29.711Z,30.60
2018-12-10T05:04:29.697Z,34.70
2018-12-10T05:05:29.381Z,31.10
2018-12-10T05:06:29.673Z,34.10
2018-12-10T05:07:29.702Z,31.90
2018-12-10T05:08:29.703Z,38.50
2018-12-10T05:09:29.313Z,36.00
2018-12-10T05:10:29.319Z,32.60
2018-12-10T05:11:29.293Z,33.10
2018-12-10T05:12:29.646Z,35.70
2018-12-10T05:13:29.667Z,33.00
2018-12-10T05:14:29.325Z,36.40
2018-12-10T05:15:29.599Z,36.10
2018-12-10T05:16:29.256Z,30.90
2018-12-10T05:17:29.265Z,30.10
2018-12-10T05:18:29.250Z,32.60
2018-12-10T05:19:29.265Z,29.10
2018-12-10T05:20:29.584Z,29.60
2018-12-10T05:21:29.254Z,30.20
2018-12-10T05:22:29.241Z,31.20
2018-12-10T05:23:29.198Z,28.60
2018-12-10T05:24:29.561Z,32.80
2018-12-10T05:25:29.212Z,29.50
2018-12-10T05:26:29.509Z,28.40
2018-12-10T05:27:29.525Z,28.70
2018-12-10T05:28:29.641Z,27.70
2018-12-10T05:29:29.511Z,27.60
2018-12-10T05:30:29.501Z,28.60
2018-12-10T05:31:29.481Z,26.50
2018-12-10T05:32:29.131Z,23.90
2018-12-10T05:33:29.493Z,26.10
2018-12-10T05:34:29.484Z,24.60
2018-12-10T05:35:29.137Z,24.90
2018-12-10T05:36:29.458Z,25.80
2018-12-10T05:37:29.131Z,25.60
2018-12-10T05:38:29.432Z,25.90
2018-12-10T05:39:29.459Z,22.20
2018-12-10T05:40:29.448Z,23.10
2018-12-10T05:41:29.090Z,22.10
2018-12-10T05:42:29.119Z,18.50
2018-12-10T05:43:29.457Z,22.70
2018-12-10T05:44:29.398Z,24.70
2018-12-10T05:45:29.070Z,18.80
2018-12-10T05:46:29.391Z,20.10
2018-12-10T05:47:29.414Z,20.50
2018-12-10T05:48:29.024Z,23.80
2018-12-10T05:49:29.415Z,19.80
2018-12-10T05:50:29.400Z,21.00
2018-12-10T05:51:29.048Z,21.10
2018-12-10T05:52:29.347Z,20.30
2018-12-10T05:53:29.328Z,22.60
2018-12-10T05:54:29.366Z,21.40
2018-12-10T05:55:29.333Z,16.30
2018-12-10T05:56:29.328Z,19.50
2018-12-10T05:57:29.295Z,17.90
2018-12-10T05:58:28.952Z,20.10
2018-12-10T05:59:28.954Z,19.40
2018-12-10T06:00:28.968Z,16.30
2018-12-10T06:01:29.318Z,18.60
2018-12-10T06:02:28.960Z,19.20
2018-12-10T06:03:29.258Z,15.60
2018-12-10T06:04:29.266Z,15.50
2018-12-10T06:05:28.941Z,16.00
2018-12-10T06:06:29.006Z,18.20
2018-12-10T06:07:29.279Z,18.10
2018-12-10T06:08:28.904Z,17.00
2018-12-10T06:09:28.885Z,16.80
2018-12-10T06:10:29.247Z,17.00
2018-12-10T06:11:28.910Z,15.70
2018-12-10T06:12:28.892Z,13.70
2018-12-10T06:13:28.893Z,16.20
2018-12-10T06:14:28.882Z,14.90
2018-12-10T06:15:29.194Z,15.60
2018-12-10T06:16:28.870Z,15.00
2018-12-10T06:17:28.833Z,15.70
2018-12-10T06:18:29.213Z,13.50
2018-12-10T06:19:28.834Z,13.70
2018-12-10T06:20:29.164Z,15.60
2018-12-10T06:21:28.801Z,12.50
2018-12-10T06:22:29.150Z,13.70
2018-12-10T06:23:28.795Z,14.00
2018-12-10T06:24:29.120Z,14.50
2018-12-10T06:25:29.127Z,12.60
2018-12-10T06:26:29.114Z,15.20
2018-12-10T06:27:28.780Z,14.30
2018-12-10T06:28:28.788Z,13.50
2018-12-10T06:29:29.103Z,11.50
2018-12-10T06:30:28.728Z,13.00
2018-12-10T06:31:28.737Z,11.10
2018-12-10T06:32:28.759Z,12.40
2018-12-10T06:33:28.717Z,12.30
2018-12-10T06:36:00.959Z,11.60
2018-12-10T06:37:01.127Z,13.50
2018-12-10T06:38:54.645Z,11.60
2018-12-10T06:39:54.264Z,12.40
2018-12-10T06:41:48.470Z,11.10
2018-12-10T06:42:47.627Z,11.30
2018-12-10T06:44:40.984Z,10.70
2018-12-10T06:45:41.317Z,12.90
2018-12-10T06:47:34.552Z,10.30
2018-12-10T06:48:34.651Z,11.70
2018-12-10T06:50:28.610Z,10.80
2018-12-10T06:51:28.039Z,9.50
2018-12-10T06:53:21.543Z,8.80
2018-12-10T06:54:21.316Z,10.50
2018-12-10T06:56:14.935Z,10.90
2018-12-10T06:57:14.723Z,10.10
2018-12-10T06:59:08.882Z,10.70
2018-12-10T07:00:08.022Z,11.50
2018-12-10T07:02:01.030Z,9.00
2018-12-10T07:03:01.378Z,10.30
2018-12-10T07:04:54.592Z,8.90
2018-12-10T07:05:54.396Z,10.60
2018-12-10T07:07:48.353Z,9.70
2018-12-10T07:08:48.093Z,8.50
2018-12-10T07:10:41.861Z,7.10
2018-12-10T07:11:41.442Z,8.90
2018-12-10T07:13:34.048Z,10.10
2018-12-10T07:14:34.306Z,8.70
2018-12-10T07:16:27.507Z,10.60
2018-12-10T07:17:27.666Z,14.10
2018-12-10T07:19:21.040Z,13.90
2018-12-10T07:20:20.682Z,15.10
2018-12-10T07:22:14.192Z,15.90
2018-12-10T07:23:14.368Z,17.20
2018-12-10T07:24:14.343Z,19.40
2018-12-10T07:25:13.979Z,16.10
2018-12-10T07:26:14.322Z,19.20
2018-12-10T07:27:13.993Z,18.60
2018-12-10T07:28:14.303Z,17.40
2018-12-10T07:29:13.983Z,19.20
2018-12-10T07:30:13.966Z,18.30
2018-12-10T07:31:14.308Z,17.80
2018-12-10T07:32:14.250Z,16.20
2018-12-10T07:33:13.955Z,13.70
2018-12-10T07:34:14.246Z,16.30
2018-12-10T07:35:14.319Z,18.20
2018-12-10T07:36:14.273Z,15.90
2018-12-10T07:37:13.925Z,16.10
2018-12-10T07:38:13.924Z,17.50
2018-12-10T07:39:14.270Z,17.80
2018-12-10T07:40:13.933Z,16.80
2018-12-10T07:41:13.905Z,17.20
2018-12-10T07:42:13.843Z,17.00
2018-12-10T07:43:14.182Z,17.70
2018-12-10T07:44:14.169Z,16.30
2018-12-10T07:45:13.868Z,14.30
2018-12-10T07:46:13.869Z,18.10
2018-12-10T07:47:14.194Z,16.10
2018-12-10T07:48:14.169Z,15.70
2018-12-10T07:49:14.163Z,17.10
2018-12-10T07:50:14.188Z,13.20
2018-12-10T07:51:14.162Z,13.80
2018-12-10T07:52:14.128Z,13.80
2018-12-10T07:53:14.169Z,14.00
2018-12-10T07:54:13.810Z,16.90
2018-12-10T07:55:13.799Z,13.60
2018-12-10T07:56:13.794Z,12.80
2018-12-10T07:57:13.754Z,15.60
2018-12-10T07:58:13.750Z,12.90
2018-12-10T07:59:13.778Z,12.80
2018-12-10T08:00:14.093Z,14.50
2018-12-10T08:01:13.752Z,13.30
2018-12-10T08:02:13.756Z,14.40
2018-12-10T08:03:13.707Z,13.80
2018-12-10T08:04:13.693Z,15.70
2018-12-10T08:05:13.724Z,16.60
2018-12-10T08:06:14.040Z,20.70
2018-12-10T08:07:14.033Z,20.40
2018-12-10T08:08:14.076Z,20.20
2018-12-10T08:09:13.674Z,19.70
2018-12-10T08:10:13.702Z,19.70
2018-12-10T08:11:13.681Z,21.20
2018-12-10T08:12:13.695Z,16.60
2018-12-10T08:13:13.995Z,18.30
2018-12-10T08:14:13.993Z,17.70
2018-12-10T08:15:13.652Z,19.60
2018-12-10T08:16:13.962Z,18.50
2018-12-10T08:17:13.641Z,17.70
2018-12-10T08:18:13.635Z,17.20
2018-12-10T08:19:13.591Z,21.20
2018-12-10T08:20:13.953Z,15.50
2018-12-10T08:21:13.929Z,17.90
2018-12-10T08:22:14.017Z,17.50
2018-12-10T08:23:13.964Z,17.70
2018-12-10T08:24:13.590Z,13.90
2018-12-10T08:25:13.580Z,19.80
2018-12-10T08:26:13.539Z,13.90
2018-12-10T08:27:13.876Z,14.50
2018-12-10T08:28:13.928Z,13.50
2018-12-10T08:29:13.536Z,16.30
2018-12-10T08:30:13.567Z,14.50
2018-12-10T08:31:13.548Z,13.10
2018-12-10T08:32:13.870Z,14.00
2018-12-10T08:33:13.529Z,14.50
2018-12-10T08:34:13.498Z,13.00
2018-12-10T08:35:13.515Z,11.80
2018-12-10T08:36:13.873Z,12.40
2018-12-10T08:37:13.825Z,11.20
2018-12-10T08:38:13.808Z,11.20
2018-12-10T08:39:13.504Z,10.40
2018-12-10T08:40:13.481Z,10.30
2018-12-10T08:41:13.837Z,12.00
2018-12-10T08:42:13.785Z,13.70
2018-12-10T08:43:13.468Z,13.20
2018-12-10T08:44:13.452Z,10.00
2018-12-10T08:45:13.792Z,11.20
2018-12-10T08:46:13.419Z,11.80
2018-12-10T08:47:16.182Z,10.80
2018-12-10T08:48:13.734Z,10.60
2018-12-10T08:49:13.397Z,10.40
2018-12-10T08:50:13.769Z,10.90
2018-12-10T08:51:13.497Z,9.90
2018-12-10T08:52:13.726Z,10.50
2018-12-10T08:53:13.733Z,10.50
2018-12-10T08:54:13.383Z,9.80
2018-12-10T08:55:13.353Z,10.00
2018-12-10T08:56:13.688Z,11.50
2018-12-10T08:57:13.817Z,10.00
2018-12-10T08:58:13.361Z,8.80
2018-12-10T08:59:13.337Z,10.90
2018-12-10T09:00:13.670Z,9.20
2018-12-10T09:01:13.297Z,9.20
2018-12-10T09:02:13.690Z,9.20
2018-12-10T09:03:13.645Z,7.60
2018-12-10T09:04:13.318Z,7.90
2018-12-10T09:05:13.300Z,9.20
2018-12-10T09:06:13.657Z,7.30
2018-12-10T09:07:13.605Z,9.30
2018-12-10T09:08:13.638Z,8.60
2018-12-10T09:09:13.237Z,8.70
2018-12-10T09:10:13.615Z,8.30
2018-12-10T09:11:13.399Z,9.50
2018-12-10T09:12:13.596Z,7.90
2018-12-10T09:13:13.255Z,7.70
2018-12-10T09:14:13.599Z,9.80
2018-12-10T09:15:13.586Z,7.70
2018-12-10T09:16:13.190Z,6.70
2018-12-10T09:17:13.233Z,7.80
2018-12-10T09:18:13.550Z,7.90
2018-12-10T09:19:13.565Z,9.60
2018-12-10T09:20:13.221Z,7.70
2018-12-10T09:21:13.157Z,8.40
2018-12-10T09:22:13.536Z,8.60
2018-12-10T09:23:13.545Z,5.50
2018-12-10T09:24:13.487Z,8.40
2018-12-10T09:25:13.481Z,7.10
2018-12-10T09:26:13.535Z,7.10
2018-12-10T09:27:13.146Z,10.00
2018-12-10T09:28:19.444Z,6.30
2018-12-10T09:29:13.136Z,7.60
2018-12-10T09:30:13.444Z,6.00
2018-12-10T09:31:13.125Z,6.80
2018-12-10T09:32:13.116Z,5.90
2018-12-10T09:33:13.109Z,6.00
2018-12-10T09:34:13.104Z,7.40
2018-12-10T09:35:13.108Z,5.80
2018-12-10T09:36:13.101Z,6.00
2018-12-10T09:37:13.446Z,7.30
2018-12-10T09:38:13.087Z,5.90
2018-12-10T09:39:13.366Z,5.00
2018-12-10T09:40:13.038Z,5.70
2018-12-10T09:41:13.050Z,10.00
2018-12-10T09:42:13.361Z,5.80
2018-12-10T09:43:13.360Z,5.60
2018-12-10T09:44:13.030Z,7.40
2018-12-10T09:45:13.364Z,5.10
2018-12-10T09:46:13.375Z,5.90
2018-12-10T09:47:13.354Z,7.20
2018-12-10T09:48:13.311Z,13.60
2018-12-10T09:49:13.320Z,36.20
2018-12-10T09:50:12.998Z,141.70
2018-12-10T09:51:12.947Z,213.40
2018-12-10T09:52:13.295Z,175.00
2018-12-10T09:53:13.314Z,314.90
2018-12-10T09:54:13.285Z,353.90
2018-12-10T09:55:13.279Z,343.60
2018-12-10T09:56:13.283Z,326.60
2018-12-10T09:57:13.300Z,328.40
2018-12-10T09:58:13.261Z,289.80
2018-12-10T09:59:13.228Z,278.50
2018-12-10T10:00:12.921Z,275.70
2018-12-10T10:01:12.876Z,276.30
2018-12-10T10:02:13.084Z,256.90
2018-12-10T10:03:13.230Z,261.30
2018-12-10T10:04:13.192Z,266.90
2018-12-10T10:05:13.218Z,266.50
2018-12-10T10:06:12.864Z,259.00
2018-12-10T10:07:13.164Z,252.20
2018-12-10T10:08:13.225Z,251.30
2018-12-10T10:09:12.867Z,251.20
2018-12-10T10:10:13.166Z,250.20
2018-12-10T10:11:12.839Z,248.20
2018-12-10T10:12:13.192Z,240.90
2018-12-10T10:13:13.172Z,247.70
2018-12-10T10:14:13.141Z,236.40
2018-12-10T10:15:13.143Z,228.40
2018-12-10T10:16:12.791Z,229.60
2018-12-10T10:17:12.796Z,226.70
2018-12-10T10:18:12.790Z,223.80
2018-12-10T10:19:13.132Z,222.20
2018-12-10T10:20:12.778Z,214.70
2018-12-10T10:21:13.098Z,217.40
2018-12-10T10:22:13.117Z,219.20
2018-12-10T10:23:12.717Z,214.10
2018-12-10T10:24:12.725Z,210.10
2018-12-10T10:25:12.743Z,207.30
2018-12-10T10:26:13.077Z,205.40
2018-12-10T10:27:12.714Z,207.50
2018-12-10T10:28:12.719Z,208.50
2018-12-10T10:29:13.063Z,201.30
2018-12-10T10:30:13.039Z,202.70
2018-12-10T10:31:12.660Z,195.90
2018-12-10T10:32:13.039Z,200.70
2018-12-10T10:33:13.014Z,189.60
2018-12-10T10:34:12.682Z,192.90
2018-12-10T10:36:44.661Z,184.40
2018-12-10T10:37:44.567Z,187.30
2018-12-10T10:39:36.935Z,178.70
2018-12-10T10:40:36.928Z,182.40
2018-12-10T10:42:29.141Z,177.60
2018-12-10T10:43:28.959Z,177.00
2018-12-10T10:45:22.270Z,174.00
2018-12-10T10:46:22.250Z,171.60
2018-12-10T10:48:16.280Z,175.00
2018-12-10T10:49:15.935Z,175.10
2018-12-10T10:51:09.326Z,169.30
2018-12-10T10:52:08.966Z,171.70
2018-12-10T10:54:02.414Z,165.40
2018-12-10T10:55:01.861Z,161.60
2018-12-10T10:56:54.211Z,157.50
2018-12-10T10:57:54.169Z,160.70
2018-12-10T10:59:47.982Z,156.70
2018-12-10T11:00:47.973Z,157.90
2018-12-10T11:02:40.871Z,161.50
2018-12-10T11:03:41.201Z,155.60
2018-12-10T11:05:34.745Z,147.40
2018-12-10T11:06:34.531Z,153.40
2018-12-10T11:08:27.581Z,147.80
2018-12-10T11:09:27.894Z,144.60
2018-12-10T11:11:21.476Z,142.60
2018-12-10T11:12:20.907Z,146.10
2018-12-10T11:14:14.584Z,143.20
2018-12-10T11:15:14.555Z,135.70
2018-12-10T11:17:07.112Z,138.80
2018-12-10T11:18:06.588Z,133.30
2018-12-10T11:19:59.469Z,137.30
2018-12-10T11:20:59.801Z,134.30
2018-12-10T11:22:53.074Z,133.70
2018-12-10T11:23:52.866Z,131.90
2018-12-10T11:25:45.217Z,126.80
2018-12-10T11:26:45.507Z,125.50
2018-12-10T11:28:37.769Z,128.90
2018-12-10T11:29:38.474Z,123.90
2018-12-10T11:31:30.911Z,120.70
2018-12-10T11:32:31.257Z,120.30
2018-12-10T11:34:24.816Z,114.70
2018-12-10T11:35:24.191Z,117.00
2018-12-10T11:37:18.543Z,119.70
2018-12-10T11:38:18.001Z,118.90
2018-12-10T11:40:11.604Z,115.10
2018-12-10T11:41:11.046Z,114.60
2018-12-10T11:43:04.726Z,115.80
2018-12-10T11:44:04.330Z,117.20
2018-12-10T11:45:58.875Z,113.70
2018-12-10T11:46:58.043Z,115.70
2018-12-10T11:48:51.371Z,112.40
2018-12-10T11:49:51.381Z,113.80
2018-12-10T11:51:44.933Z,110.60
2018-12-10T11:52:44.398Z,111.30
2018-12-10T11:54:38.094Z,108.00
2018-12-10T11:55:37.725Z,108.50
2018-12-10T11:57:31.292Z,113.70
2018-12-10T11:58:31.066Z,109.70
2018-12-10T12:00:24.536Z,110.60
2018-12-10T12:01:24.396Z,116.20
2018-12-10T12:03:18.337Z,110.90
2018-12-10T12:04:17.753Z,115.70
2018-12-10T12:06:10.125Z,108.20
2018-12-10T12:07:10.072Z,106.60
2018-12-10T12:09:04.116Z,104.30
2018-12-10T12:10:02.992Z,106.00
2018-12-10T12:11:56.340Z,105.10
2018-12-10T12:12:56.652Z,104.70
2018-12-10T12:14:49.248Z,106.60
2018-12-10T12:15:49.002Z,105.10
2018-12-10T12:17:41.373Z,106.90
2018-12-10T12:18:41.365Z,106.70
2018-12-10T12:20:34.891Z,107.80
2018-12-10T12:21:34.331Z,106.60
2018-12-10T12:23:27.605Z,103.90
2018-12-10T12:24:26.665Z,104.00
2018-12-10T12:26:20.538Z,101.80
2018-12-10T12:27:20.330Z,100.20
2018-12-10T12:29:13.772Z,99.40
2018-12-10T12:30:13.338Z,99.20
2018-12-10T12:32:05.802Z,100.70
2018-12-10T12:33:05.224Z,95.90
2018-12-10T12:34:57.900Z,97.10
2018-12-10T12:35:58.101Z,97.90
2018-12-10T12:37:52.190Z,95.50
2018-12-10T12:38:51.399Z,99.60
2018-12-10T12:40:45.146Z,96.30
2018-12-10T12:41:45.143Z,96.20
2018-12-10T12:43:38.293Z,95.70
2018-12-10T12:44:37.143Z,88.40
2018-12-10T12:46:30.481Z,94.70
2018-12-10T12:47:30.489Z,90.30
2018-12-10T12:49:23.386Z,95.30
2018-12-10T12:50:22.839Z,93.20
2018-12-10T12:52:16.197Z,88.00
2018-12-10T12:53:16.517Z,92.00
2018-12-10T12:55:08.762Z,87.80
2018-12-10T12:56:08.510Z,85.70
2018-12-10T12:58:02.243Z,89.60
2018-12-10T12:59:01.842Z,87.10
2018-12-10T13:00:59.752Z,87.10
2018-12-10T13:01:55.212Z,84.20
2018-12-10T13:03:48.930Z,88.30
2018-12-10T13:04:48.877Z,89.30
2018-12-10T13:06:42.089Z,85.70
2018-12-10T13:07:41.889Z,86.70
2018-12-10T13:09:35.269Z,84.40
2018-12-10T13:10:35.590Z,88.20
2018-12-10T13:12:28.820Z,84.30
2018-12-10T13:13:28.940Z,85.30
2018-12-10T13:15:21.972Z,79.30
2018-12-10T13:16:22.281Z,81.10
2018-12-10T13:18:16.428Z,84.80
2018-12-10T13:19:15.297Z,82.80
2018-12-10T13:21:09.549Z,79.20
2018-12-10T13:22:08.963Z,77.90
2018-12-10T13:24:02.610Z,77.30
2018-12-10T13:25:01.995Z,74.40
2018-12-10T13:26:55.341Z,78.40
2018-12-10T13:27:55.322Z,79.10
2018-12-10T13:29:48.001Z,81.30
2018-12-10T13:30:47.699Z,83.60
2018-12-10T13:32:41.065Z,80.30
2018-12-10T13:33:41.383Z,78.80
2018-12-10T13:36:34.399Z,80.80
2018-12-10T13:38:28.644Z,74.50
2018-12-10T13:39:27.728Z,76.20
2018-12-10T13:41:20.607Z,72.60
2018-12-10T13:42:20.066Z,75.00
2018-12-10T13:44:13.768Z,77.30
2018-12-10T13:45:13.384Z,77.60
2018-12-10T13:47:07.326Z,70.20
2018-12-10T13:48:06.740Z,72.60
2018-12-10T13:50:00.459Z,75.60
2018-12-10T13:51:00.439Z,75.40
2018-12-10T13:52:53.639Z,72.30
2018-12-10T13:53:53.769Z,77.60
2018-12-10T13:55:46.794Z,74.80
2018-12-10T13:56:46.808Z,72.70
2018-12-10T13:58:40.718Z,72.30
2018-12-10T13:59:40.134Z,75.30
2018-12-10T14:01:33.511Z,74.30
2018-12-10T14:02:33.497Z,72.80
2018-12-10T14:04:27.416Z,72.60
2018-12-10T14:05:26.807Z,70.80
2018-12-10T14:07:20.494Z,70.50
2018-12-10T14:08:20.153Z,66.20
2018-12-10T14:10:14.089Z,71.90
2018-12-10T14:11:13.523Z,69.80
2018-12-10T14:13:07.455Z,68.80
2018-12-10T14:14:07.170Z,69.90
2018-12-10T14:16:00.415Z,69.20
2018-12-10T14:17:00.524Z,67.80
2018-12-10T14:18:52.516Z,66.50
2018-12-10T14:19:52.886Z,69.00
2018-12-10T14:21:46.447Z,68.20
2018-12-10T14:22:45.850Z,65.60
2018-12-10T14:24:39.549Z,68.30
2018-12-10T14:25:39.578Z,69.40
2018-12-10T14:27:33.072Z,65.70
2018-12-10T14:28:32.557Z,65.30
2018-12-10T14:30:26.520Z,70.80
2018-12-10T14:31:27.407Z,63.00
2018-12-10T14:33:19.783Z,66.50
2018-12-10T14:34:19.227Z,68.10
2018-12-10T14:36:12.923Z,66.20
2018-12-10T14:37:12.552Z,62.30
2018-12-10T14:39:06.648Z,65.40
2018-12-10T14:40:06.821Z,65.70
2018-12-10T14:42:00.116Z,67.50
2018-12-10T14:43:00.157Z,63.70
2018-12-10T14:44:53.714Z,65.50
2018-12-10T14:45:53.144Z,64.70
2018-12-10T14:47:46.844Z,62.70
2018-12-10T14:48:46.485Z,63.90
2018-12-10T14:50:40.051Z,68.70
2018-12-10T14:51:40.018Z,66.60
2018-12-10T14:53:33.141Z,66.70
2018-12-10T14:54:33.518Z,62.80
2018-12-10T14:56:27.043Z,63.50
2018-12-10T14:57:26.474Z,64.30
2018-12-10T14:59:20.223Z,65.50
2018-12-10T15:00:20.168Z,61.30
2018-12-10T15:02:13.770Z,63.80
2018-12-10T15:03:13.150Z,66.60
2018-12-10T15:05:06.523Z,63.80
2018-12-10T15:06:06.827Z,62.00
2018-12-10T15:08:00.408Z,60.70
2018-12-10T15:08:59.841Z,64.00
2018-12-10T15:10:52.516Z,61.60
2018-12-10T15:11:52.525Z,66.70
2018-12-10T15:13:45.743Z,64.80
2018-12-10T15:14:45.844Z,62.60
2018-12-10T15:16:39.254Z,64.10
2018-12-10T15:17:39.191Z,64.60
2018-12-10T15:19:32.797Z,62.70
2018-12-10T15:20:32.244Z,61.90
2018-12-10T15:22:24.570Z,73.00
2018-12-10T15:23:24.886Z,66.50
2018-12-10T15:25:18.160Z,63.50
2018-12-10T15:26:17.896Z,64.80
2018-12-10T15:28:11.264Z,66.50
2018-12-10T15:29:11.597Z,67.90
2018-12-10T15:31:04.839Z,69.30
2018-12-10T15:32:04.570Z,69.70
2018-12-10T15:33:58.282Z,69.80
2018-12-10T15:34:58.276Z,66.60
2018-12-10T15:36:51.856Z,66.20
2018-12-10T15:37:51.278Z,63.10
2018-12-10T15:39:45.195Z,69.70
2018-12-10T15:40:44.929Z,68.90
2018-12-10T15:42:38.262Z,69.20
2018-12-10T15:43:38.290Z,71.40
2018-12-10T15:45:30.269Z,66.10
2018-12-10T15:46:30.267Z,66.50
2018-12-10T15:48:23.971Z,71.80
2018-12-10T15:49:23.647Z,68.50
2018-12-10T15:51:17.358Z,65.80
2018-12-10T15:52:17.314Z,68.90
2018-12-10T15:54:10.581Z,67.30
2018-12-10T15:55:10.650Z,66.70
2018-12-10T15:57:03.991Z,70.40
2018-12-10T15:58:03.987Z,66.00
2018-12-10T15:59:57.580Z,71.10
2018-12-10T16:00:57.011Z,64.20
2018-12-10T16:02:49.357Z,69.80
2018-12-10T16:03:49.355Z,67.60
2018-12-10T16:05:41.907Z,68.90
2018-12-10T16:06:42.040Z,68.80
2018-12-10T16:08:35.014Z,71.90
2018-12-10T16:09:35.026Z,70.70
2018-12-10T16:11:28.927Z,66.40
2018-12-10T16:12:28.336Z,70.20
2018-12-10T16:14:22.665Z,75.00